Time;durP1;ratioP1;P1;durP2;ratioP2;P2;SDS_P1;SDS_P2;PMS_P1;PMS_P2;Temp;Humidity;BMP_temperature;BMP_pressure;BME280_temperature;BME280_humidity;BME280_pressure;Samples;Min_cycle;Max_cycle;Signal;HPM_P1;HPM_P2
2023/04/10 00:00:12;;;;;;;;;;;7.60;99.90;;;;;;5054307;28;19921;-63
2023/04/10 00:02:38;;;;;;;;;;;7.50;99.90;;;;;;5047431;28;19921;-62
2023/04/10 00:05:06;;;;;;;;;;;7.50;99.90;;;;;;5051201;28;19925;-63
2023/04/10 00:07:32;;;;;;;;;;;7.40;99.90;;;;;;5053491;28;19921;-63
2023/04/10 00:09:59;;;;;;;;;;;7.50;99.90;;;;;;5053757;28;19924;-63
2023/04/10 00:12:26;;;;;;;;;;;7.40;99.90;;;;;;5052836;28;20379;-63
2023/04/10 00:14:52;;;;;;;;;;;7.40;99.90;;;;;;5046510;28;20462;-63
2023/04/10 00:17:20;;;;;;;;;;;7.40;99.90;;;;;;5048169;28;19925;-61
2023/04/10 00:19:46;;;;;;;;;;;7.40;99.90;;;;;;5053760;28;19971;-63
2023/04/10 00:22:13;;;;;;;;;;;7.40;99.90;;;;;;5049266;28;19921;-62
2023/04/10 00:24:39;;;;;;;;;;;7.40;99.90;;;;;;5053500;28;19920;-62
2023/04/10 00:27:06;;;;;;;;;;;7.30;99.90;;;;;;5048927;28;19920;-63
2023/04/10 00:29:32;;;;;;;;;;;7.30;99.90;;;;;;5050114;28;19924;-63
2023/04/10 00:31:59;;;;;;;;;;;7.30;99.90;;;;;;5048421;28;19924;-61
2023/04/10 00:34:27;;;;;;;;;;;7.30;99.90;;;;;;5053590;28;19920;-62
2023/04/10 00:36:53;;;;;;;;;;;7.30;99.90;;;;;;5048794;28;19921;-61
2023/04/10 00:39:20;;;;;;;;;;;7.30;99.90;;;;;;5053498;28;19971;-63
2023/04/10 00:41:46;;;;;;;;;;;7.30;99.90;;;;;;5048937;28;20002;-63
2023/04/10 00:44:13;;;;;;;;;;;7.30;99.90;;;;;;5053498;28;19921;-63
2023/04/10 00:46:39;;;;;;;;;;;7.30;99.90;;;;;;5050895;28;19974;-63
2023/04/10 00:49:08;;;;;;;;;;;7.40;99.90;;;;;;5053144;28;20433;-63
2023/04/10 00:51:36;;;;;;;;;;;7.40;99.90;;;;;;5046895;28;19925;-64
2023/04/10 00:54:03;;;;;;;;;;;7.40;99.90;;;;;;5052975;28;19974;-63
2023/04/10 00:56:30;;;;;;;;;;;7.40;99.90;;;;;;5051689;28;19967;-62
2023/04/10 00:58:57;;;;;;;;;;;7.40;99.90;;;;;;5052918;28;19920;-64
2023/04/10 01:01:23;;;;;;;;;;;7.30;99.90;;;;;;5048780;28;19921;-64
2023/04/10 01:03:50;;;;;;;;;;;7.30;99.90;;;;;;5052868;28;20422;-63
2023/04/10 01:06:21;;;;;;;;;;;7.30;99.90;;;;;;5052313;28;20334;-62
2023/04/10 01:08:53;;;;;;;;;;;7.30;99.90;;;;;;5043668;28;19950;-62
2023/04/10 01:11:24;;;;;;;;;;;7.30;99.90;;;;;;5053258;28;19920;-63
2023/04/10 01:13:54;;;;;;;;;;;7.30;99.90;;;;;;5047663;28;19927;-63
2023/04/10 01:16:26;;;;;;;;;;;7.30;99.90;;;;;;5052459;28;19974;-63
2023/04/10 01:18:57;;;;;;;;;;;7.30;99.90;;;;;;5048168;28;19920;-62
2023/04/10 01:21:24;;;;;;;;;;;7.30;99.90;;;;;;5047498;28;19974;-64
2023/04/10 01:24:03;;;;;;;;;;;7.30;99.90;;;;;;5050031;28;20345;-63
2023/04/10 01:26:39;;;;;;;;;;;7.30;99.90;;;;;;5040138;28;19967;-64
2023/04/10 01:29:08;;;;;;;;;;;7.30;99.90;;;;;;5052594;28;20131;-63
2023/04/10 01:31:37;;;;;;;;;;;7.30;99.90;;;;;;5048040;28;19920;-63
2023/04/10 01:34:06;;;;;;;;;;;7.30;1.00;;;;;;5052448;28;19920;-63
2023/04/10 01:36:35;;;;;;;;;;;7.30;99.90;;;;;;5050180;28;19921;-64
2023/04/10 01:39:03;;;;;;;;;;;7.30;1.00;;;;;;5052208;28;20054;-63
2023/04/10 01:41:31;;;;;;;;;;;7.20;1.00;;;;;;5047809;28;19921;-63
2023/04/10 01:43:58;;;;;;;;;;;7.20;1.00;;;;;;5052509;28;19921;-64
2023/04/10 01:46:26;;;;;;;;;;;7.20;1.00;;;;;;5043005;28;19921;-64
2023/04/10 01:48:53;;;;;;;;;;;7.10;1.00;;;;;;5052077;28;19921;-62
2023/04/10 01:51:20;;;;;;;;;;;7.10;1.00;;;;;;5047896;28;19921;-63
2023/04/10 01:53:48;;;;;;;;;;;7.10;1.00;;;;;;5052224;28;20345;-64
2023/04/10 01:56:15;;;;;;;;;;;7.10;1.00;;;;;;5047380;28;19920;-64
2023/04/10 01:58:42;;;;;;;;;;;7.10;1.00;;;;;;5052043;28;19943;-64
2023/04/10 02:01:09;;;;;;;;;;;7.10;1.00;;;;;;5051142;28;20379;-64
2023/04/10 02:03:36;;;;;;;;;;;7.10;1.00;;;;;;5047371;28;19926;-63
2023/04/10 02:06:10;;;;;;;;;;;7.20;1.00;;;;;;5051460;28;19951;-64
2023/04/10 02:08:39;;;;;;;;;;;7.20;1.00;;;;;;5048405;28;19978;-64
2023/04/10 02:11:10;;;;;;;;;;;7.20;1.00;;;;;;5048359;28;19927;-64
2023/04/10 02:13:39;;;;;;;;;;;7.20;99.90;;;;;;5048580;28;19974;-63
2023/04/10 02:16:07;;;;;;;;;;;7.20;99.90;;;;;;5047587;28;20046;-62
2023/04/10 02:18:34;;;;;;;;;;;7.30;99.90;;;;;;5051969;28;19921;-63
2023/04/10 02:21:02;;;;;;;;;;;7.30;99.90;;;;;;5047790;28;19924;-62
2023/04/10 02:23:29;;;;;;;;;;;7.40;99.90;;;;;;5051886;28;19925;-64
2023/04/10 02:25:57;;;;;;;;;;;7.50;99.90;;;;;;5051179;28;19925;-64
2023/04/10 02:28:23;;;;;;;;;;;7.50;99.90;;;;;;5052077;28;20021;-65
2023/04/10 02:30:50;;;;;;;;;;;7.50;99.90;;;;;;5048486;28;19921;-64
2023/04/10 02:33:16;;;;;;;;;;;7.50;99.90;;;;;;5052067;28;19920;-64
2023/04/10 02:35:43;;;;;;;;;;;7.50;99.90;;;;;;5047354;28;20354;-64
2023/04/10 02:38:11;;;;;;;;;;;7.50;99.90;;;;;;5051718;28;19928;-64
2023/04/10 02:40:37;;;;;;;;;;;7.60;99.90;;;;;;5049994;28;19924;-65
2023/04/10 02:43:04;;;;;;;;;;;7.60;99.90;;;;;;5052264;28;19920;-64
2023/04/10 02:45:32;;;;;;;;;;;7.60;99.90;;;;;;5048375;28;19921;-63
2023/04/10 02:47:58;;;;;;;;;;;7.60;99.90;;;;;;5056205;28;20391;-63
2023/04/10 02:50:28;;;;;;;;;;;7.60;99.90;;;;;;5056828;28;19929;-64
2023/04/10 02:52:55;;;;;;;;;;;7.60;99.90;;;;;;5056117;28;20372;-64
2023/04/10 02:55:23;;;;;;;;;;;7.60;99.90;;;;;;5056090;28;19928;-65
2023/04/10 02:57:50;;;;;;;;;;;7.60;94.50;;;;;;5055270;28;19928;-65
2023/04/10 03:00:18;;;;;;;;;;;7.60;99.90;;;;;;5052122;28;19953;-64
2023/04/10 03:02:44;;;;;;;;;;;7.70;78.20;;;;;;5055282;28;19921;-65
2023/04/10 03:05:11;;;;;;;;;;;7.70;71.60;;;;;;5054543;28;19920;-63
2023/04/10 03:07:37;;;;;;;;;;;7.70;56.90;;;;;;5051426;28;20383;-64
2023/04/10 03:10:04;;;;;;;;;;;7.70;38.40;;;;;;5052502;28;19921;-64
2023/04/10 03:12:32;;;;;;;;;;;7.70;3.10;;;;;;5052519;28;19921;-64
2023/04/10 03:14:59;;;;;;;;;;;7.70;3.50;;;;;;5052187;28;19976;-64
2023/04/10 03:17:25;;;;;;;;;;;7.80;1.00;;;;;;5054703;28;19960;-65
2023/04/10 03:19:52;;;;;;;;;;;7.80;1.00;;;;;;5052124;28;19974;-64
2023/04/10 03:22:18;;;;;;;;;;;7.70;3.10;;;;;;5054030;28;19921;-64
2023/04/10 03:24:45;;;;;;;;;;;7.70;3.80;;;;;;5049550;28;19920;-65
2023/04/10 03:27:11;;;;;;;;;;;7.70;1.00;;;;;;5054613;28;19924;-64
2023/04/10 03:29:39;;;;;;;;;;;7.70;1.00;;;;;;5052061;28;19924;-64
2023/04/10 03:32:06;;;;;;;;;;;7.70;3.60;;;;;;5052175;28;20283;-64
2023/04/10 03:34:32;;;;;;;;;;;7.70;1.00;;;;;;5054099;28;19921;-65
2023/04/10 03:36:59;;;;;;;;;;;7.70;1.00;;;;;;5050777;28;20291;-65
2023/04/10 03:39:25;;;;;;;;;;;7.70;1.00;;;;;;5053376;28;19925;-65
2023/04/10 03:41:52;;;;;;;;;;;7.70;1.00;;;;;;5050300;28;19920;-65
2023/04/10 03:44:18;;;;;;;;;;;7.70;1.00;;;;;;5054627;28;19925;-65
2023/04/10 03:46:46;;;;;;;;;;;7.70;1.00;;;;;;5050109;28;19974;-64
2023/04/10 03:49:12;;;;;;;;;;;7.80;1.00;;;;;;5050630;28;20349;-65
2023/04/10 03:51:39;;;;;;;;;;;7.80;1.00;;;;;;5048087;28;19991;-65
2023/04/10 03:54:05;;;;;;;;;;;7.80;1.00;;;;;;5053796;28;20302;-65
2023/04/10 03:56:32;;;;;;;;;;;7.80;1.00;;;;;;5052256;28;19936;-63
2023/04/10 03:58:58;;;;;;;;;;;7.80;1.00;;;;;;5054366;28;19924;-64
2023/04/10 04:01:25;;;;;;;;;;;7.90;1.00;;;;;;5044307;28;20399;-65
2023/04/10 04:03:53;;;;;;;;;;;7.80;1.00;;;;;;5054197;28;19951;-65
2023/04/10 04:06:19;;;;;;;;;;;7.80;1.00;;;;;;5048634;28;19921;-65
2023/04/10 04:08:45;;;;;;;;;;;7.80;1.00;;;;;;5054001;28;19929;-65
2023/04/10 04:11:12;;;;;;;;;;;7.70;1.00;;;;;;5045250;28;19921;-64
2023/04/10 04:13:38;;;;;;;;;;;7.80;1.00;;;;;;5053934;28;19974;-64
2023/04/10 04:16:05;;;;;;;;;;;7.80;1.00;;;;;;5052761;28;19970;-65
2023/04/10 04:18:32;;;;;;;;;;;7.90;1.00;;;;;;5053709;28;19920;-65
2023/04/10 04:21:00;;;;;;;;;;;7.80;1.00;;;;;;5052651;28;19966;-63
2023/04/10 04:23:26;;;;;;;;;;;7.80;1.00;;;;;;5052973;28;19920;-64
2023/04/10 04:25:54;;;;;;;;;;;7.80;1.00;;;;;;5053402;28;19921;-63
2023/04/10 04:28:21;;;;;;;;;;;7.80;1.00;;;;;;5049923;28;19932;-64
2023/04/10 04:30:48;;;;;;;;;;;7.80;1.00;;;;;;5054014;28;20109;-64
2023/04/10 04:33:14;;;;;;;;;;;7.80;1.00;;;;;;5050195;28;19921;-65
2023/04/10 04:35:40;;;;;;;;;;;7.70;1.00;;;;;;5049209;28;19920;-65
2023/04/10 04:38:08;;;;;;;;;;;7.70;1.00;;;;;;5048918;28;19920;-64
2023/04/10 04:40:35;;;;;;;;;;;7.70;1.00;;;;;;5053315;28;20379;-62
2023/04/10 04:43:01;;;;;;;;;;;7.70;1.00;;;;;;5051488;28;19932;-64
2023/04/10 04:45:29;;;;;;;;;;;7.70;1.00;;;;;;5053546;28;19978;-64
2023/04/10 04:47:56;;;;;;;;;;;7.60;1.00;;;;;;5048369;28;19928;-65
2023/04/10 04:50:22;;;;;;;;;;;7.60;1.00;;;;;;5049698;28;19973;-65
2023/04/10 04:52:49;;;;;;;;;;;7.60;1.00;;;;;;5051560;28;19978;-65
2023/04/10 04:55:17;;;;;;;;;;;7.50;1.00;;;;;;5052382;28;19927;-64
2023/04/10 04:57:43;;;;;;;;;;;7.50;1.00;;;;;;5052874;28;20307;-64
2023/04/10 05:00:11;;;;;;;;;;;7.50;1.00;;;;;;5050251;28;19921;-64
2023/04/10 05:02:37;;;;;;;;;;;7.40;1.00;;;;;;5049342;28;19928;-65
2023/04/10 05:05:04;;;;;;;;;;;7.40;1.00;;;;;;5048939;28;19924;-63
2023/04/10 05:07:31;;;;;;;;;;;7.40;1.00;;;;;;5047922;28;19921;-64
2023/04/10 05:09:58;;;;;;;;;;;7.40;1.00;;;;;;5050193;28;20019;-63
2023/04/10 05:12:26;;;;;;;;;;;7.30;1.00;;;;;;5053118;28;19986;-64
2023/04/10 05:14:53;;;;;;;;;;;7.40;1.00;;;;;;5045789;28;19921;-64
2023/04/10 05:17:19;;;;;;;;;;;7.40;1.00;;;;;;5045804;28;19925;-64
2023/04/10 05:19:45;;;;;;;;;;;7.40;1.00;;;;;;5050757;28;20395;-64
2023/04/10 05:22:12;;;;;;;;;;;7.40;1.00;;;;;;5052725;28;19966;-63
2023/04/10 05:24:38;;;;;;;;;;;7.30;1.00;;;;;;5050474;28;19924;-63
2023/04/10 05:27:05;;;;;;;;;;;7.30;1.00;;;;;;5051993;28;19971;-64
2023/04/10 05:29:33;;;;;;;;;;;7.30;1.00;;;;;;5049301;28;20899;-64
2023/04/10 05:31:59;;;;;;;;;;;7.40;1.00;;;;;;5052113;28;19920;-64
2023/04/10 05:34:26;;;;;;;;;;;7.40;1.00;;;;;;5048770;28;20366;-63
2023/04/10 05:36:52;;;;;;;;;;;7.40;1.00;;;;;;5052363;28;19921;-63
2023/04/10 05:39:19;;;;;;;;;;;7.50;1.00;;;;;;5044772;28;19925;-63
2023/04/10 05:41:45;;;;;;;;;;;7.50;1.00;;;;;;5048491;28;19975;-64
2023/04/10 05:44:12;;;;;;;;;;;7.60;1.00;;;;;;5048388;28;19921;-64
2023/04/10 05:46:39;;;;;;;;;;;7.60;1.00;;;;;;5052223;28;19974;-64
2023/04/10 05:49:06;;;;;;;;;;;7.70;1.00;;;;;;5049067;28;19921;-64
2023/04/10 05:51:32;;;;;;;;;;;7.70;1.00;;;;;;5048543;28;20406;-62
2023/04/10 05:53:59;;;;;;;;;;;7.80;1.00;;;;;;5051561;28;19924;-64
2023/04/10 05:56:26;;;;;;;;;;;7.90;1.00;;;;;;5052037;28;19924;-64
2023/04/10 05:58:52;;;;;;;;;;;8.00;1.00;;;;;;5046158;28;19952;-64
2023/04/10 06:01:19;;;;;;;;;;;8.20;1.00;;;;;;5052260;28;19925;-64
2023/04/10 06:03:47;;;;;;;;;;;8.30;1.00;;;;;;5046242;28;19932;-64
2023/04/10 06:06:13;;;;;;;;;;;8.40;1.00;;;;;;5047421;28;19943;-64
2023/04/10 06:08:40;;;;;;;;;;;8.50;1.00;;;;;;5049817;28;19921;-65
2023/04/10 06:11:06;;;;;;;;;;;8.60;1.00;;;;;;5052186;28;19921;-65
2023/04/10 06:13:33;;;;;;;;;;;8.70;1.00;;;;;;5047453;28;19921;-64
2023/04/10 06:16:00;;;;;;;;;;;8.80;1.00;;;;;;5054104;28;19975;-64
2023/04/10 06:18:26;;;;;;;;;;;9.00;99.90;;;;;;5051773;28;20024;-65
2023/04/10 06:20:55;;;;;;;;;;;9.10;99.90;;;;;;5056191;28;19966;-64
2023/04/10 06:23:22;;;;;;;;;;;9.30;99.90;;;;;;5052807;28;19924;-64
2023/04/10 06:25:48;;;;;;;;;;;9.40;99.90;;;;;;5056396;28;20295;-64
2023/04/10 06:28:15;;;;;;;;;;;9.60;99.90;;;;;;5048954;28;19970;-64
2023/04/10 06:30:41;;;;;;;;;;;9.70;99.90;;;;;;5053012;28;19925;-65
2023/04/10 06:33:07;;;;;;;;;;;9.80;99.90;;;;;;5053442;28;20326;-63
2023/04/10 06:35:35;;;;;;;;;;;9.80;99.90;;;;;;5057032;28;19967;-64
2023/04/10 06:38:03;;;;;;;;;;;9.90;99.90;;;;;;5049616;28;19921;-64
2023/04/10 06:40:29;;;;;;;;;;;9.90;99.90;;;;;;5057017;28;19924;-64
2023/04/10 06:42:56;;;;;;;;;;;10.00;99.90;;;;;;5052351;28;20011;-64
2023/04/10 06:45:22;;;;;;;;;;;10.10;99.90;;;;;;5055779;28;19936;-64
2023/04/10 06:47:49;;;;;;;;;;;10.10;99.90;;;;;;5047322;28;19930;-65
2023/04/10 06:50:15;;;;;;;;;;;10.20;99.90;;;;;;5057247;28;20371;-65
2023/04/10 06:52:42;;;;;;;;;;;10.30;99.90;;;;;;5055529;28;19988;-64
2023/04/10 06:55:11;;;;;;;;;;;10.40;99.90;;;;;;5052026;28;19967;-63
2023/04/10 06:57:38;;;;;;;;;;;10.40;99.90;;;;;;5055348;28;19920;-65
2023/04/10 07:00:05;;;;;;;;;;;10.50;99.90;;;;;;5050570;28;19921;-64
2023/04/10 07:02:31;;;;;;;;;;;10.60;99.90;;;;;;5055230;28;19920;-65
2023/04/10 07:04:58;;;;;;;;;;;10.70;99.90;;;;;;5047923;28;19967;-64
2023/04/10 07:07:25;;;;;;;;;;;10.90;99.90;;;;;;5050438;28;19978;-64
2023/04/10 07:09:51;;;;;;;;;;;11.10;99.90;;;;;;5050314;28;19925;-65
2023/04/10 07:12:19;;;;;;;;;;;11.20;99.90;;;;;;5055277;28;19947;-65
2023/04/10 07:14:46;;;;;;;;;;;11.40;99.90;;;;;;5054327;28;20294;-64
2023/04/10 07:17:12;;;;;;;;;;;11.60;99.90;;;;;;5050467;28;19928;-63
2023/04/10 07:19:39;;;;;;;;;;;11.80;99.90;;;;;;5051280;28;20123;-63
2023/04/10 07:22:06;;;;;;;;;;;11.90;99.90;;;;;;5054451;28;20019;-64
2023/04/10 07:24:32;;;;;;;;;;;11.90;99.90;;;;;;5054498;28;20294;-64
2023/04/10 07:27:00;;;;;;;;;;;11.90;99.90;;;;;;5054032;28;19974;-63
2023/04/10 07:29:28;;;;;;;;;;;11.80;99.90;;;;;;5045052;28;19921;-64
2023/04/10 07:31:55;;;;;;;;;;;11.90;99.90;;;;;;5055085;28;19921;-65
2023/04/10 07:34:21;;;;;;;;;;;12.00;99.90;;;;;;5050656;28;19921;-64
2023/04/10 07:36:48;;;;;;;;;;;11.90;99.90;;;;;;5054516;28;19921;-64
2023/04/10 07:39:14;;;;;;;;;;;11.90;99.90;;;;;;5051234;28;20449;-64
2023/04/10 07:41:41;;;;;;;;;;;12.10;99.90;;;;;;5051089;28;19927;-64
2023/04/10 07:44:07;;;;;;;;;;;12.10;99.90;;;;;;5050522;28;19932;-64
2023/04/10 07:46:35;;;;;;;;;;;12.20;99.90;;;;;;5054451;28;19921;-64
2023/04/10 07:49:01;;;;;;;;;;;12.30;99.90;;;;;;5051176;28;20437;-64
2023/04/10 07:51:28;;;;;;;;;;;12.50;99.90;;;;;;5054461;28;19921;-64
2023/04/10 07:53:55;;;;;;;;;;;12.60;99.90;;;;;;5050037;28;19994;-65
2023/04/10 07:56:23;;;;;;;;;;;12.40;99.90;;;;;;5053863;28;19927;-64
2023/04/10 07:58:50;;;;;;;;;;;12.50;99.90;;;;;;5051801;28;19924;-64
2023/04/10 08:01:17;;;;;;;;;;;12.50;99.90;;;;;;5054544;28;20264;-65
2023/04/10 08:03:46;;;;;;;;;;;12.60;99.90;;;;;;5049607;28;19920;-63
2023/04/10 08:06:12;;;;;;;;;;;12.70;99.90;;;;;;5054094;28;19928;-64
2023/04/10 08:08:39;;;;;;;;;;;12.70;99.90;;;;;;5045576;28;19921;-64
2023/04/10 08:11:07;;;;;;;;;;;12.70;99.90;;;;;;5053983;28;19924;-64
2023/04/10 08:13:33;;;;;;;;;;;12.70;99.90;;;;;;5048116;28;19921;-64
2023/04/10 08:16:00;;;;;;;;;;;12.70;99.90;;;;;;5049850;28;19983;-63
2023/04/10 08:18:27;;;;;;;;;;;12.80;99.90;;;;;;5051885;28;19967;-63
2023/04/10 08:20:54;;;;;;;;;;;12.90;99.90;;;;;;5053945;28;19921;-64
2023/04/10 08:23:21;;;;;;;;;;;13.10;99.90;;;;;;5051621;28;19921;-64
2023/04/10 08:25:47;;;;;;;;;;;13.30;99.90;;;;;;5051710;28;19921;-64
2023/04/10 08:28:14;;;;;;;;;;;13.40;99.90;;;;;;5051558;28;19920;-65
2023/04/10 08:30:40;;;;;;;;;;;13.50;99.90;;;;;;5053500;28;19978;-63
2023/04/10 08:33:07;;;;;;;;;;;13.60;99.90;;;;;;5051700;28;20284;-64
2023/04/10 08:35:33;;;;;;;;;;;13.70;99.90;;;;;;5055019;28;19920;-65
2023/04/10 08:38:01;;;;;;;;;;;13.80;99.90;;;;;;5045340;28;19979;-64
2023/04/10 08:40:27;;;;;;;;;;;14.00;99.90;;;;;;5047716;28;20437;-65
2023/04/10 08:42:54;;;;;;;;;;;14.20;99.90;;;;;;5047079;28;19967;-65
2023/04/10 08:45:22;;;;;;;;;;;14.20;99.90;;;;;;5053287;28;20433;-63
2023/04/10 08:47:51;;;;;;;;;;;14.20;99.90;;;;;;5045547;28;19924;-64
2023/04/10 08:50:18;;;;;;;;;;;14.40;99.90;;;;;;5046932;28;19925;-64
2023/04/10 08:52:45;;;;;;;;;;;14.60;99.90;;;;;;5048680;28;19921;-64
2023/04/10 08:55:13;;;;;;;;;;;14.60;99.90;;;;;;5051713;28;19924;-63
2023/04/10 08:57:40;;;;;;;;;;;14.80;99.90;;;;;;5051988;28;19960;-63
2023/04/10 09:00:07;;;;;;;;;;;14.80;99.90;;;;;;5052307;28;19974;-65
2023/04/10 09:02:34;;;;;;;;;;;14.80;99.90;;;;;;5036561;28;19929;-64
2023/04/10 09:05:03;;;;;;;;;;;14.90;99.90;;;;;;5050372;28;19933;-63
2023/04/10 09:07:29;;;;;;;;;;;14.70;99.90;;;;;;5049899;28;19979;-61
2023/04/10 09:09:56;;;;;;;;;;;14.50;99.90;;;;;;5052186;28;20006;-63
2023/04/10 09:12:24;;;;;;;;;;;14.60;99.90;;;;;;5044038;28;19921;-62
2023/04/10 09:14:52;;;;;;;;;;;14.50;99.90;;;;;;5047987;28;19963;-62
2023/04/10 09:17:19;;;;;;;;;;;14.40;99.90;;;;;;5045426;28;19920;-62
2023/04/10 09:19:46;;;;;;;;;;;14.40;99.90;;;;;;5052349;28;19921;-61
2023/04/10 09:22:13;;;;;;;;;;;14.50;99.90;;;;;;5045101;28;19929;-62
2023/04/10 09:24:40;;;;;;;;;;;14.60;99.90;;;;;;5051615;28;19924;-62
2023/04/10 09:27:07;;;;;;;;;;;14.70;99.90;;;;;;5052295;28;20322;-62
2023/04/10 09:29:47;;;;;;;;;;;14.80;99.90;;;;;;5052176;28;19966;-59
2023/04/10 09:32:13;;;;;;;;;;;14.80;99.90;;;;;;5048050;28;19921;-60
2023/04/10 09:34:53;;;;;;;;;;;14.90;99.90;;;;;;5047396;28;19924;-60
2023/04/10 09:37:21;;;;;;;;;;;15.00;99.90;;;;;;5049121;28;19959;-60
2023/04/10 09:39:48;;;;;;;;;;;14.90;99.90;;;;;;5050656;28;19920;-60
2023/04/10 09:42:14;;;;;;;;;;;15.00;99.90;;;;;;5052101;28;19982;-60
2023/04/10 09:44:41;;;;;;;;;;;15.20;99.90;;;;;;5043770;28;20015;-60
2023/04/10 09:47:17;;;;;;;;;;;15.30;99.90;;;;;;5048872;28;19920;-60
2023/04/10 09:49:47;;;;;;;;;;;15.30;99.90;;;;;;5047960;28;20248;-60
2023/04/10 09:52:20;;;;;;;;;;;15.20;99.90;;;;;;5048323;28;19928;-60
2023/04/10 09:54:46;;;;;;;;;;;15.10;99.90;;;;;;5050567;28;19921;-60
2023/04/10 09:57:15;;;;;;;;;;;15.10;99.90;;;;;;5047052;28;19924;-58
2023/04/10 09:59:43;;;;;;;;;;;15.40;99.90;;;;;;5047148;28;20359;-60
2023/04/10 10:02:11;;;;;;;;;;;15.40;99.90;;;;;;5048915;28;19924;-59
2023/04/10 10:04:39;;;;;;;;;;;15.20;99.90;;;;;;5047542;28;19927;-60
2023/04/10 10:07:05;;;;;;;;;;;15.20;99.90;;;;;;5050183;28;19980;-62
2023/04/10 10:09:32;;;;;;;;;;;15.30;99.90;;;;;;5048891;28;19920;-62
2023/04/10 10:11:59;;;;;;;;;;;15.10;99.90;;;;;;5050697;28;19921;-61
2023/04/10 10:14:27;;;;;;;;;;;15.20;99.90;;;;;;5050015;28;19921;-62
2023/04/10 10:16:56;;;;;;;;;;;15.30;99.90;;;;;;5051595;28;19928;-62
2023/04/10 10:19:24;;;;;;;;;;;15.20;99.90;;;;;;5043780;28;19952;-62
2023/04/10 10:21:53;;;;;;;;;;;15.20;99.90;;;;;;5049563;28;19921;-62
2023/04/10 10:24:20;;;;;;;;;;;15.20;99.90;;;;;;5048055;28;19921;-62
2023/04/10 10:26:47;;;;;;;;;;;15.20;99.90;;;;;;5051342;28;19936;-64
2023/04/10 10:29:17;;;;;;;;;;;15.30;99.90;;;;;;5044416;28;19920;-62
2023/04/10 10:31:44;;;;;;;;;;;15.50;99.90;;;;;;5046767;28;19921;-61
2023/04/10 10:34:11;;;;;;;;;;;15.50;99.90;;;;;;5050949;28;19924;-62
2023/04/10 10:36:37;;;;;;;;;;;15.40;99.90;;;;;;5047988;28;20031;-60
2023/04/10 10:39:22;;;;;;;;;;;15.50;99.90;;;;;;5052739;28;20030;-62
2023/04/10 10:41:54;;;;;;;;;;;15.50;99.90;;;;;;5045117;28;19999;-62
2023/04/10 10:44:26;;;;;;;;;;;15.60;99.90;;;;;;5047267;28;20010;-62
2023/04/10 10:47:01;;;;;;;;;;;15.80;99.90;;;;;;5045615;28;19921;-58
2023/04/10 10:49:42;;;;;;;;;;;16.10;99.90;;;;;;5051903;28;19931;-61
2023/04/10 10:52:09;;;;;;;;;;;16.20;99.90;;;;;;5039574;28;19975;-59
2023/04/10 10:54:35;;;;;;;;;;;16.20;99.90;;;;;;5051155;28;20015;-60
2023/04/10 10:57:07;;;;;;;;;;;16.20;99.90;;;;;;5050883;28;19951;-60
2023/04/10 10:59:53;;;;;;;;;;;16.20;99.90;;;;;;5050110;28;19974;-60
2023/04/10 11:02:20;;;;;;;;;;;16.10;99.90;;;;;;5047736;28;19925;-61
2023/04/10 11:04:48;;;;;;;;;;;16.20;99.90;;;;;;5054725;28;19971;-62
2023/04/10 11:07:14;;;;;;;;;;;16.30;99.90;;;;;;5052654;28;19920;-61
2023/04/10 11:09:49;;;;;;;;;;;16.20;99.90;;;;;;5050996;28;19921;-59
2023/04/10 11:12:18;;;;;;;;;;;16.30;99.90;;;;;;5050191;28;20331;-62
2023/04/10 11:14:55;;;;;;;;;;;16.40;99.90;;;;;;5054216;28;19974;-62
2023/04/10 11:17:37;;;;;;;;;;;16.70;99.90;;;;;;5046770;28;19991;-63
2023/04/10 11:20:04;;;;;;;;;;;16.40;99.90;;;;;;5053586;28;20388;-60
2023/04/10 11:22:31;;;;;;;;;;;16.50;99.90;;;;;;5050085;28;19928;-61
2023/04/10 11:24:59;;;;;;;;;;;16.50;99.90;;;;;;5054264;28;19970;-62
2023/04/10 11:27:39;;;;;;;;;;;16.50;99.90;;;;;;5048743;28;19921;-63
2023/04/10 11:30:21;;;;;;;;;;;16.60;99.90;;;;;;5052331;28;20377;-63
2023/04/10 11:32:49;;;;;;;;;;;16.80;99.90;;;;;;5045544;28;19974;-63
2023/04/10 11:35:19;;;;;;;;;;;16.90;99.90;;;;;;5052190;28;20280;-63
2023/04/10 11:37:45;;;;;;;;;;;16.80;99.90;;;;;;5053869;28;19921;-63
2023/04/10 11:40:13;;;;;;;;;;;16.80;99.90;;;;;;5054177;28;19928;-63
2023/04/10 11:42:40;;;;;;;;;;;16.70;99.90;;;;;;5052911;28;20338;-61
2023/04/10 11:45:23;;;;;;;;;;;16.80;99.90;;;;;;5051420;28;19920;-60
2023/04/10 11:47:51;;;;;;;;;;;16.70;99.90;;;;;;5050871;28;20407;-61
2023/04/10 11:50:17;;;;;;;;;;;16.80;99.90;;;;;;5053351;28;19920;-60
2023/04/10 11:52:44;;;;;;;;;;;16.80;99.90;;;;;;5050317;28;20381;-62
2023/04/10 11:55:10;;;;;;;;;;;16.70;99.90;;;;;;5053271;28;19986;-62
2023/04/10 11:57:37;;;;;;;;;;;16.80;99.90;;;;;;5053131;28;19927;-64
2023/04/10 12:00:06;;;;;;;;;;;16.90;99.90;;;;;;5053979;28;19921;-64
2023/04/10 12:02:32;;;;;;;;;;;16.70;99.90;;;;;;5049535;28;19943;-64
2023/04/10 12:04:59;;;;;;;;;;;16.70;99.90;;;;;;5046959;28;19975;-64
2023/04/10 12:07:28;;;;;;;;;;;16.70;99.90;;;;;;5053534;28;20294;-63
2023/04/10 12:09:56;;;;;;;;;;;16.80;99.90;;;;;;5048598;28;19936;-64
2023/04/10 12:12:34;;;;;;;;;;;17.00;99.90;;;;;;5048991;28;19967;-64
2023/04/10 12:15:00;;;;;;;;;;;17.10;99.90;;;;;;5046163;28;19925;-63
2023/04/10 12:17:28;;;;;;;;;;;16.80;99.90;;;;;;5053273;28;19952;-64
2023/04/10 12:19:55;;;;;;;;;;;17.10;99.90;;;;;;5047326;28;20359;-64
2023/04/10 12:22:21;;;;;;;;;;;17.10;99.90;;;;;;5052771;28;19971;-64
2023/04/10 12:24:49;;;;;;;;;;;17.00;99.90;;;;;;5052218;28;20342;-61
2023/04/10 12:27:17;;;;;;;;;;;16.90;99.90;;;;;;5052887;28;19921;-64
2023/04/10 12:29:44;;;;;;;;;;;17.20;99.90;;;;;;5051889;28;19960;-61
2023/04/10 12:32:10;;;;;;;;;;;17.30;99.90;;;;;;5053070;28;19928;-59
2023/04/10 12:34:37;;;;;;;;;;;;;;;;;;5050481;28;19925;-60
2023/04/10 12:37:04;;;;;;;;;;;;;;;;;;5052525;28;20338;-60
2023/04/10 12:39:31;;;;;;;;;;;;;;;;;;5048396;28;19964;-63
2023/04/10 12:42:11;;;;;;;;;;;17.40;99.90;;;;;;5053284;28;19921;-63
2023/04/10 12:44:49;;;;;;;;;;;17.50;99.90;;;;;;5051997;28;20341;-62
2023/04/10 12:47:16;;;;;;;;;;;17.70;99.90;;;;;;5049475;28;19920;-68
2023/04/10 12:49:42;;;;;;;;;;;17.80;99.90;;;;;;5052175;28;19921;-67
2023/04/10 12:52:09;;;;;;;;;;;17.90;99.90;;;;;;5053119;28;19936;-66
2023/04/10 12:54:36;;;;;;;;;;;17.80;99.90;;;;;;5050180;28;20379;-65
2023/04/10 12:57:03;;;;;;;;;;;17.70;99.90;;;;;;5046454;28;19928;-68
2023/04/10 12:59:31;;;;;;;;;;;17.60;99.90;;;;;;5051963;28;19921;-66
2023/04/10 13:01:58;;;;;;;;;;;17.80;99.90;;;;;;5051946;28;20271;-67
2023/04/10 13:04:24;;;;;;;;;;;17.80;99.90;;;;;;5048445;28;19921;-66
2023/04/10 13:06:51;;;;;;;;;;;17.60;99.90;;;;;;5049054;28;20555;-66
2023/04/10 13:09:18;;;;;;;;;;;17.50;99.90;;;;;;5049066;28;19963;-65
2023/04/10 13:11:45;;;;;;;;;;;17.50;99.90;;;;;;5049991;28;20379;-65
2023/04/10 13:14:11;;;;;;;;;;;17.50;99.90;;;;;;5052856;28;20367;-65
2023/04/10 13:16:39;;;;;;;;;;;17.30;99.90;;;;;;5045389;28;19931;-64
2023/04/10 13:19:05;;;;;;;;;;;17.30;99.90;;;;;;5050934;28;19920;-69
2023/04/10 13:21:32;;;;;;;;;;;17.40;99.90;;;;;;5043050;28;19970;-67
2023/04/10 13:23:58;;;;;;;;;;;17.40;99.90;;;;;;5052081;28;19928;-66
2023/04/10 13:26:25;;;;;;;;;;;17.30;99.90;;;;;;5047724;28;19990;-67
2023/04/10 13:28:51;;;;;;;;;;;17.40;99.90;;;;;;5046480;28;20003;-66
2023/04/10 13:31:18;;;;;;;;;;;17.30;99.90;;;;;;5048995;28;19924;-68
2023/04/10 13:33:46;;;;;;;;;;;17.20;99.90;;;;;;5047448;28;19928;-67
2023/04/10 13:36:13;;;;;;;;;;;17.30;99.90;;;;;;5047966;28;20003;-66
2023/04/10 13:38:40;;;;;;;;;;;17.30;99.90;;;;;;5051369;28;19925;-65
2023/04/10 13:41:06;;;;;;;;;;;17.20;99.90;;;;;;5050341;28;19921;-66
2023/04/10 13:43:33;;;;;;;;;;;17.10;99.90;;;;;;5045146;28;20386;-66
2023/04/10 13:45:59;;;;;;;;;;;17.10;99.90;;;;;;5051940;28;19920;-66
2023/04/10 13:48:26;;;;;;;;;;;17.10;99.90;;;;;;5051406;28;19987;-62
2023/04/10 13:50:54;;;;;;;;;;;17.10;99.90;;;;;;5050961;28;19920;-63
2023/04/10 13:53:20;;;;;;;;;;;17.30;99.90;;;;;;5051449;28;19920;-62
2023/04/10 13:55:48;;;;;;;;;;;17.20;99.90;;;;;;5047605;28;19921;-63
2023/04/10 13:58:15;;;;;;;;;;;17.30;99.90;;;;;;5047238;28;19928;-63
2023/04/10 14:00:42;;;;;;;;;;;17.30;99.90;;;;;;5051099;28;19975;-63
2023/04/10 14:03:10;;;;;;;;;;;17.30;99.90;;;;;;5051192;28;19921;-62
2023/04/10 14:05:37;;;;;;;;;;;17.00;99.90;;;;;;5047931;28;19921;-62
2023/04/10 14:08:05;;;;;;;;;;;16.90;99.90;;;;;;5047810;28;19928;-63
2023/04/10 14:10:31;;;;;;;;;;;17.00;99.90;;;;;;5048649;28;19924;-62
2023/04/10 14:12:58;;;;;;;;;;;16.90;99.90;;;;;;5051076;28;19982;-62
2023/04/10 14:15:24;;;;;;;;;;;16.80;99.90;;;;;;5051411;28;19920;-62
2023/04/10 14:17:51;;;;;;;;;;;16.90;99.90;;;;;;5048440;28;19925;-63
2023/04/10 14:20:17;;;;;;;;;;;17.00;99.90;;;;;;5050588;28;19924;-63
2023/04/10 14:22:46;;;;;;;;;;;17.00;99.90;;;;;;5048796;28;19951;-63
2023/04/10 14:25:15;;;;;;;;;;;17.00;99.90;;;;;;5047008;28;20307;-62
2023/04/10 14:27:42;;;;;;;;;;;16.90;99.90;;;;;;5045161;28;20305;-63
2023/04/10 14:30:09;;;;;;;;;;;16.80;99.90;;;;;;5047299;28;19974;-64